Impacts TAF Board
For situational awareness. Not to be used for flight planning purposes.
IDs:

KSTL - St Louis/Lambert Int, MO, US

Issued at 2327 UTC 04 Jul 2022
Updated at 0005 UTC 05 Jul 2022
Potential Impact None Slight Moderate High
Time2351Z 05/01Z 05/02Z 05/03Z 05/04Z 05/05Z 05/06Z 05/07Z 05/08Z 05/09Z 05/10Z 05/11Z 05/12Z 05/13Z>>
Type OBS PRVL PRVL PRVL PRVL PRVL PRVL PRVL PRVL PRVL PRVL PRVL PRVL PRVL
VIS 10 >6 >6 5 5 5 5 >6 >6 >6 >6 >6 >6 >6
CIG -- -- -- -- -- -- -- -- -- -- -- -- -- --
Cover SCT SCT SCT FEW FEW FEW FEW SKC SKC SKC SKC SKC SKC SKC
FltCat VFR VFR VFR MVFR MVFR MVFR MVFR VFR VFR VFR VFR VFR VFR VFR
WX -- -- -- FU FU FU FU -- -- -- -- -- -- --
WDir 190 170 170 180 180 180 180 210 210 210 210 210 210 210
WSpd 9 7 7 5 5 5 5 5 5 5 5 5 5 5
WGst -- -- -- -- -- -- -- -- -- -- -- -- -- --
WSHgt -- -- -- -- -- -- -- -- -- -- -- -- -- --
WSDir -- -- -- -- -- -- -- -- -- -- -- -- -- --
WSSpd -- -- -- -- -- -- -- -- -- -- -- -- -- --
Raw TAF
KSTL 042327Z 0500/0606 17007KT P6SM FEW050 SCT250
  FM050300 18005KT 5SM FU FEW250
  FM050700 21005KT P6SM SKC
  FM051500 24007KT P6SM SCT070


Raw METAR
KSTL 042351Z 19009KT 10SM FEW050 FEW065 SCT250 35/22 A2994 RMK AO2 SLP124 T03500217 10361 20339 56008
KSTL 042251Z 19011KT 10SM FEW055 FEW065 SCT250 36/22 A2995 RMK AO2 SLP127 T03560217
KSTL 042151Z 17010G18KT 10SM SCT050 SCT065 36/22 A2996 RMK AO2 SLP129 T03560222

METAR Board
Radar Display
Forecast Discussion
For situational awareness. Not to be used for flight planning purposes.